Time;durP1;ratioP1;P1;durP2;ratioP2;P2;SDS_P1;SDS_P2;PMS_P1;PMS_P2;Temp;Humidity;BMP_temperature;BMP_pressure;BME280_temperature;BME280_humidity;BME280_pressure;Samples;Min_cycle;Max_cycle;Signal;HPM_P1;HPM_P2
2023/09/24 00:01:12;;;;;;;6.45;1.45;;;11.80;99.90;;;;;;5003326;28;20417;-72
2023/09/24 00:03:38;;;;;;;5.32;1.88;;;11.80;99.90;;;;;;5003563;28;20077;-73
2023/09/24 00:06:08;;;;;;;4.43;1.50;;;11.80;99.90;;;;;;5008827;28;20057;-72
2023/09/24 00:08:34;;;;;;;11.20;1.92;;;11.80;99.90;;;;;;5004288;28;20041;-73
2023/09/24 00:11:00;;;;;;;4.18;1.70;;;11.80;99.90;;;;;;5010306;28;20038;-72
2023/09/24 00:13:26;;;;;;;2.58;1.20;;;11.80;99.90;;;;;;4999012;28;20128;-72
2023/09/24 00:15:52;;;;;;;5.50;1.70;;;11.80;99.90;;;;;;5008091;28;20041;-73
2023/09/24 00:18:19;;;;;;;5.05;1.67;;;11.80;99.90;;;;;;5002449;28;20030;-72
2023/09/24 00:20:45;;;;;;;5.03;1.40;;;11.80;99.90;;;;;;5001632;28;20045;-72
2023/09/24 00:23:11;;;;;;;3.88;1.83;;;11.80;99.90;;;;;;5001738;28;20030;-72
2023/09/24 00:25:37;;;;;;;5.00;2.05;;;11.80;99.90;;;;;;5003064;28;20088;-72
2023/09/24 00:28:04;;;;;;;2.88;1.48;;;11.80;99.90;;;;;;5003493;28;20067;-73
2023/09/24 00:30:33;;;;;;;10.77;1.60;;;11.70;99.90;;;;;;5001019;28;20074;-73
2023/09/24 00:32:59;;;;;;;3.25;1.38;;;11.70;99.90;;;;;;5002126;28;20113;-72
2023/09/24 00:35:24;;;;;;;4.65;1.55;;;11.70;99.90;;;;;;5005905;28;20494;-73
2023/09/24 00:37:50;;;;;;;6.53;2.03;;;11.70;99.90;;;;;;5008266;28;20034;-72
2023/09/24 00:40:15;;;;;;;5.75;1.50;;;11.70;99.90;;;;;;5003423;28;20077;-71
2023/09/24 00:42:41;;;;;;;4.38;1.70;;;11.70;99.90;;;;;;5006490;28;20129;-72
2023/09/24 00:45:10;;;;;;;6.20;2.17;;;11.70;99.90;;;;;;5001222;28;20049;-71
2023/09/24 00:47:37;;;;;;;6.38;1.70;;;11.70;99.90;;;;;;4998964;28;20073;-72
2023/09/24 00:50:07;;;;;;;6.72;1.98;;;11.70;99.90;;;;;;5001744;28;20386;-73
2023/09/24 00:52:34;;;;;;;5.50;2.17;;;11.70;99.90;;;;;;5008171;28;20121;-72
2023/09/24 00:55:00;;;;;;;4.47;1.73;;;11.70;99.90;;;;;;5008462;28;20034;-72
2023/09/24 00:57:26;;;;;;;4.53;1.58;;;11.60;99.90;;;;;;5002935;28;20033;-71
2023/09/24 00:59:52;;;;;;;5.95;1.75;;;11.60;99.90;;;;;;5007654;28;20034;-73
2023/09/24 01:02:17;;;;;;;6.32;1.77;;;11.60;99.90;;;;;;5008669;28;20041;-72
2023/09/24 01:04:45;;;;;;;5.30;1.98;;;11.60;99.90;;;;;;5002819;28;20696;-72
2023/09/24 01:07:10;;;;;;;5.65;1.55;;;11.60;99.90;;;;;;5003416;28;20030;-72
2023/09/24 01:09:36;;;;;;;5.60;1.73;;;11.60;99.90;;;;;;5002057;28;20441;-72
2023/09/24 01:12:04;;;;;;;7.40;2.28;;;11.60;99.90;;;;;;5000017;28;20477;-72
2023/09/24 01:14:29;;;;;;;5.95;1.67;;;11.50;99.90;;;;;;5000932;28;20034;-71
2023/09/24 01:16:55;;;;;;;7.15;2.22;;;11.50;99.90;;;;;;4999257;28;20026;-72
2023/09/24 01:19:23;;;;;;;5.75;1.65;;;11.50;99.90;;;;;;5000219;28;20335;-72
2023/09/24 01:21:52;;;;;;;5.53;1.70;;;11.50;99.90;;;;;;4999935;28;20523;-72
2023/09/24 01:24:20;;;;;;;11.15;2.53;;;11.50;99.90;;;;;;5003456;28;20088;-72
2023/09/24 01:26:46;;;;;;;7.03;2.22;;;11.40;99.90;;;;;;4996831;28;20073;-71
2023/09/24 01:29:11;;;;;;;5.35;1.60;;;11.40;99.90;;;;;;5006390;28;20120;-72
2023/09/24 01:31:40;;;;;;;3.42;1.50;;;11.40;99.90;;;;;;5007777;28;20037;-73
2023/09/24 01:34:05;;;;;;;6.10;1.75;;;11.40;99.90;;;;;;5006594;28;20076;-71
2023/09/24 01:36:32;;;;;;;4.43;1.50;;;11.40;99.90;;;;;;5006254;28;20030;-72
2023/09/24 01:38:58;;;;;;;8.32;2.03;;;11.40;99.90;;;;;;5010050;28;20029;-72
2023/09/24 01:41:25;;;;;;;4.93;1.50;;;11.40;99.90;;;;;;5008053;28;20048;-72
2023/09/24 01:43:51;;;;;;;4.28;1.90;;;11.30;99.90;;;;;;5006112;28;20047;-72
2023/09/24 01:46:20;;;;;;;5.68;1.90;;;11.30;99.90;;;;;;5010620;28;20109;-72
2023/09/24 01:48:51;;;;;;;3.63;1.80;;;11.30;99.90;;;;;;5006929;28;20054;-72
2023/09/24 01:51:16;;;;;;;8.57;1.58;;;11.20;99.90;;;;;;5007961;28;20041;-72
2023/09/24 01:53:42;;;;;;;4.88;1.55;;;11.30;99.90;;;;;;5004521;28;20038;-72
2023/09/24 01:56:08;;;;;;;6.75;2.35;;;11.30;99.90;;;;;;5006725;28;20034;-72
2023/09/24 01:58:35;;;;;;;5.00;1.90;;;11.20;99.90;;;;;;5009381;28;20582;-72
2023/09/24 02:01:02;;;;;;;6.20;2.35;;;11.20;99.90;;;;;;5011636;28;20154;-72
2023/09/24 02:03:29;;;;;;;6.40;2.47;;;11.20;99.90;;;;;;5002464;28;20041;-72
2023/09/24 02:05:55;;;;;;;5.53;1.98;;;11.20;99.90;;;;;;5010135;28;20025;-74
2023/09/24 02:08:21;;;;;;;4.35;2.10;;;11.10;99.90;;;;;;5008814;28;20107;-72
2023/09/24 02:10:47;;;;;;;5.57;1.45;;;11.10;99.90;;;;;;5007826;28;20034;-74
2023/09/24 02:13:14;;;;;;;4.70;1.98;;;11.10;99.90;;;;;;5005201;28;20057;-72
2023/09/24 02:15:40;;;;;;;5.45;1.90;;;11.10;99.90;;;;;;5011271;28;20033;-72
2023/09/24 02:18:06;;;;;;;3.92;1.63;;;11.00;99.90;;;;;;5004813;28;20033;-71
2023/09/24 02:20:32;;;;;;;5.80;1.63;;;11.00;99.90;;;;;;5004919;28;20382;-73
2023/09/24 02:23:07;;;;;;;4.57;2.15;;;11.00;99.90;;;;;;5005951;28;20117;-73
2023/09/24 02:25:36;;;;;;;4.85;1.50;;;11.00;99.90;;;;;;4996373;28;20065;-72
2023/09/24 02:28:02;;;;;;;6.50;2.13;;;11.00;99.90;;;;;;5006076;28;20030;-72
2023/09/24 02:30:29;;;;;;;10.88;2.97;;;10.90;99.90;;;;;;5013810;28;20446;-73
2023/09/24 02:32:56;;;;;;;5.25;2.05;;;10.90;99.90;;;;;;5014844;28;20417;-72
2023/09/24 02:35:22;;;;;;;4.72;2.58;;;10.90;99.90;;;;;;5009641;28;20029;-72
2023/09/24 02:37:50;;;;;;;4.10;1.90;;;10.90;99.90;;;;;;5016532;28;20132;-72
2023/09/24 02:40:18;;;;;;;4.00;1.90;;;10.90;99.90;;;;;;5008870;28;20026;-75
2023/09/24 02:42:46;;;;;;;5.88;1.60;;;10.90;99.90;;;;;;5006390;28;20048;-72
2023/09/24 02:45:12;;;;;;;6.40;2.20;;;10.90;99.90;;;;;;5011321;28;20037;-72
2023/09/24 02:47:38;;;;;;;4.82;1.90;;;10.90;99.90;;;;;;5014593;28;20040;-71
2023/09/24 02:50:08;;;;;;;5.97;1.40;;;10.90;99.90;;;;;;5007111;28;20042;-71
2023/09/24 02:52:35;;;;;;;3.25;1.50;;;10.90;99.90;;;;;;5007721;28;20037;-71
2023/09/24 02:55:03;;;;;;;5.25;1.88;;;10.90;99.90;;;;;;5006372;28;20042;-72
2023/09/24 02:57:29;;;;;;;5.68;2.55;;;10.90;99.90;;;;;;5009128;28;20041;-72
2023/09/24 02:59:57;;;;;;;11.23;2.67;;;10.90;99.90;;;;;;5008626;28;20121;-71
2023/09/24 03:02:23;;;;;;;5.25;1.50;;;10.80;99.90;;;;;;5008523;28;20478;-72
2023/09/24 03:04:50;;;;;;;7.85;2.03;;;10.80;99.90;;;;;;5009018;28;20048;-72
2023/09/24 03:07:15;;;;;;;6.55;1.75;;;10.80;99.90;;;;;;5011351;28;20482;-71
2023/09/24 03:09:41;;;;;;;4.30;1.48;;;10.80;99.90;;;;;;5009443;28;20064;-70
2023/09/24 03:12:07;;;;;;;5.53;1.50;;;10.80;99.90;;;;;;5004615;28;20034;-73
2023/09/24 03:14:33;;;;;;;8.68;2.58;;;10.80;99.90;;;;;;5010325;28;20034;-71
2023/09/24 03:16:59;;;;;;;4.13;1.83;;;10.70;99.90;;;;;;5007149;28;20129;-72
2023/09/24 03:19:25;;;;;;;9.13;2.47;;;10.70;99.90;;;;;;5014724;28;20113;-75
2023/09/24 03:21:50;;;;;;;8.90;1.90;;;10.70;99.90;;;;;;5006301;28;20125;-72
2023/09/24 03:24:16;;;;;;;5.88;2.60;;;10.70;99.90;;;;;;5015239;28;20624;-71
2023/09/24 03:26:42;;;;;;;8.00;1.70;;;10.70;99.90;;;;;;5008338;28;20058;-74
2023/09/24 03:29:07;;;;;;;5.95;1.77;;;10.70;99.90;;;;;;5014645;28;20057;-72
2023/09/24 03:31:33;;;;;;;3.72;1.65;;;10.60;99.90;;;;;;5009783;28;20038;-72
2023/09/24 03:34:00;;;;;;;4.32;1.75;;;10.70;99.90;;;;;;5014922;28;20181;-72
2023/09/24 03:36:25;;;;;;;4.97;2.22;;;10.60;99.90;;;;;;5011878;28;20489;-71
2023/09/24 03:38:51;;;;;;;3.92;1.70;;;10.60;99.90;;;;;;5007539;28;20083;-71
2023/09/24 03:41:16;;;;;;;9.20;2.67;;;10.60;99.90;;;;;;5007168;28;20044;-71
2023/09/24 03:43:42;;;;;;;5.88;2.33;;;10.70;99.90;;;;;;5005543;28;20069;-72
2023/09/24 03:46:09;;;;;;;7.25;2.20;;;10.60;99.90;;;;;;5007015;28;20040;-72
2023/09/24 03:48:35;;;;;;;5.30;1.85;;;10.60;99.90;;;;;;5006053;28;20042;-72
2023/09/24 03:51:01;;;;;;;4.47;1.77;;;10.60;99.90;;;;;;5010957;28;20418;-72
2023/09/24 03:53:27;;;;;;;7.18;2.10;;;10.60;99.90;;;;;;5003354;28;20517;-71
2023/09/24 03:55:53;;;;;;;8.13;1.92;;;10.50;99.90;;;;;;5004107;28;20041;-72
2023/09/24 03:58:18;;;;;;;7.90;2.10;;;10.50;99.90;;;;;;5005066;28;20041;-72
2023/09/24 04:00:44;;;;;;;6.40;2.30;;;10.50;99.90;;;;;;5006759;28;20042;-72
2023/09/24 04:03:10;;;;;;;8.25;2.30;;;10.50;99.90;;;;;;5008667;28;20038;-74
2023/09/24 04:05:36;;;;;;;5.78;1.85;;;10.50;99.90;;;;;;5005918;28;20044;-72
2023/09/24 04:08:03;;;;;;;5.32;2.25;;;10.50;99.90;;;;;;5004841;28;20041;-72
2023/09/24 04:10:30;;;;;;;6.88;1.98;;;10.50;99.90;;;;;;5004769;28;20044;-71
2023/09/24 04:12:57;;;;;;;4.65;1.55;;;10.50;99.90;;;;;;5001290;28;21313;-72
2023/09/24 04:15:29;;;;;;;6.55;2.17;;;10.50;99.90;;;;;;5004527;28;20030;-72
2023/09/24 04:17:56;;;;;;;4.68;1.50;;;10.50;99.90;;;;;;5006993;28;20037;-72
2023/09/24 04:20:22;;;;;;;6.43;2.10;;;10.50;99.90;;;;;;5010953;28;20513;-72
2023/09/24 04:22:49;;;;;;;11.10;2.08;;;10.50;99.90;;;;;;5003429;28;20502;-72
2023/09/24 04:25:17;;;;;;;14.25;2.97;;;10.50;99.90;;;;;;5007887;28;20046;-73
2023/09/24 04:27:43;;;;;;;8.18;2.42;;;10.50;99.90;;;;;;5008316;28;20383;-73
2023/09/24 04:30:17;;;;;;;7.30;2.55;;;10.50;99.90;;;;;;5005696;28;20029;-72
2023/09/24 04:32:51;;;;;;;7.82;2.75;;;10.50;99.90;;;;;;5003420;28;20049;-71
2023/09/24 04:35:19;;;;;;;7.35;2.30;;;10.50;99.90;;;;;;5002897;28;20033;-72
2023/09/24 04:37:45;;;;;;;10.25;2.60;;;10.50;99.90;;;;;;5000545;28;20042;-71
2023/09/24 04:40:12;;;;;;;8.50;2.80;;;10.40;99.90;;;;;;5003922;28;20638;-71
2023/09/24 04:42:41;;;;;;;7.50;2.80;;;10.40;99.90;;;;;;5000801;28;20094;-72
2023/09/24 04:45:08;;;;;;;6.80;2.78;;;10.50;99.90;;;;;;5001878;28;20039;-71
2023/09/24 04:47:34;;;;;;;6.55;2.33;;;10.40;99.90;;;;;;4999999;28;20033;-73
2023/09/24 04:49:59;;;;;;;9.80;3.25;;;10.40;99.90;;;;;;5001621;28;20038;-74
2023/09/24 04:52:25;;;;;;;8.70;3.00;;;10.40;99.90;;;;;;5001483;28;20038;-72
2023/09/24 04:54:52;;;;;;;7.10;2.80;;;10.40;99.90;;;;;;4999665;28;20038;-72
2023/09/24 04:57:18;;;;;;;6.85;2.40;;;10.40;99.90;;;;;;5003635;28;20103;-72
2023/09/24 04:59:44;;;;;;;7.60;2.63;;;10.30;99.90;;;;;;5003203;28;20497;-72
2023/09/24 05:02:09;;;;;;;6.05;2.67;;;10.30;99.90;;;;;;5002300;28;20049;-72
2023/09/24 05:04:35;;;;;;;6.18;2.65;;;10.30;99.90;;;;;;4998580;28;20037;-71
2023/09/24 05:07:01;;;;;;;6.43;2.78;;;10.30;99.90;;;;;;5006669;28;20066;-71
2023/09/24 05:09:26;;;;;;;6.78;2.60;;;10.30;99.90;;;;;;5007190;28;20150;-70
2023/09/24 05:11:52;;;;;;;8.55;2.53;;;10.30;99.90;;;;;;5001514;28;20113;-71
2023/09/24 05:14:18;;;;;;;10.27;2.92;;;10.20;99.90;;;;;;5007944;28;20052;-72
2023/09/24 05:16:43;;;;;;;7.72;2.95;;;10.20;99.90;;;;;;5001293;28;20042;-70
2023/09/24 05:19:09;;;;;;;8.65;3.22;;;10.20;99.90;;;;;;5002731;28;20850;-71
2023/09/24 05:21:35;;;;;;;8.52;3.80;;;10.20;99.90;;;;;;5002711;28;20111;-73
2023/09/24 05:24:03;;;;;;;15.02;3.80;;;10.20;99.90;;;;;;5005180;28;20038;-72
2023/09/24 05:26:28;;;;;;;6.38;3.28;;;10.20;99.90;;;;;;5010215;28;20042;-72
2023/09/24 05:28:54;;;;;;;16.75;3.20;;;10.20;99.90;;;;;;4999161;28;20088;-72
2023/09/24 05:31:20;;;;;;;8.40;4.03;;;10.20;99.90;;;;;;5003118;28;20045;-72
2023/09/24 05:33:47;;;;;;;7.57;3.00;;;10.20;99.90;;;;;;4999717;28;20045;-72
2023/09/24 05:36:12;;;;;;;7.40;3.33;;;10.20;99.90;;;;;;5003855;28;20053;-72
2023/09/24 05:38:38;;;;;;;10.20;3.42;;;10.20;99.90;;;;;;5005811;28;20042;-73
2023/09/24 05:41:05;;;;;;;10.45;3.15;;;10.20;99.90;;;;;;5014181;28;20062;-72
2023/09/24 05:43:31;;;;;;;9.05;3.20;;;10.20;99.90;;;;;;5003089;28;20490;-72
2023/09/24 05:45:57;;;;;;;6.60;2.65;;;10.20;99.90;;;;;;5002673;28;20037;-72
2023/09/24 05:48:22;;;;;;;6.53;2.95;;;10.30;99.90;;;;;;5002842;28;20037;-72
2023/09/24 05:50:48;;;;;;;11.35;4.10;;;10.20;99.90;;;;;;5002518;28;20037;-72
2023/09/24 05:53:14;;;;;;;6.10;2.85;;;10.30;99.90;;;;;;5001513;28;20045;-72
2023/09/24 05:55:50;;;;;;;8.05;3.03;;;10.30;99.90;;;;;;4998632;28;20038;-72
2023/09/24 05:58:15;;;;;;;7.30;2.53;;;10.30;99.90;;;;;;5008463;28;20026;-72
2023/09/24 06:00:41;;;;;;;7.00;2.60;;;10.30;99.90;;;;;;5001810;28;20068;-72
2023/09/24 06:03:06;;;;;;;6.53;2.50;;;10.40;99.90;;;;;;5002330;28;20129;-73
2023/09/24 06:05:32;;;;;;;7.95;2.40;;;10.40;99.90;;;;;;5008780;28;20049;-72
2023/09/24 06:07:57;;;;;;;7.43;2.53;;;10.40;99.90;;;;;;4997800;28;20033;-72
2023/09/24 06:10:23;;;;;;;9.70;3.60;;;10.40;99.90;;;;;;5006634;28;20057;-72
2023/09/24 06:12:49;;;;;;;9.00;3.03;;;10.40;99.90;;;;;;5000813;28;20031;-73
2023/09/24 06:15:17;;;;;;;3.85;2.08;;;10.50;99.90;;;;;;5001507;28;20038;-72
2023/09/24 06:17:43;;;;;;;7.47;2.42;;;10.50;99.90;;;;;;5000611;28;20060;-72
2023/09/24 06:20:10;;;;;;;4.60;2.08;;;10.50;99.90;;;;;;5000306;28;20030;-72
2023/09/24 06:22:36;;;;;;;6.38;2.45;;;10.50;99.90;;;;;;5004789;28;20091;-72
2023/09/24 06:25:02;;;;;;;4.38;2.42;;;10.60;99.90;;;;;;5009332;28;20033;-71
2023/09/24 06:27:28;;;;;;;7.90;2.78;;;10.60;99.90;;;;;;5016460;28;20030;-72
2023/09/24 06:29:53;;;;;;;8.95;2.25;;;10.60;99.90;;;;;;5011338;28;20036;-72
2023/09/24 06:32:19;;;;;;;5.82;2.10;;;10.60;99.90;;;;;;5013572;28;20045;-73
2023/09/24 06:34:44;;;;;;;8.90;2.38;;;10.70;99.90;;;;;;5008029;28;20117;-72
2023/09/24 06:37:10;;;;;;;10.32;2.08;;;10.60;99.90;;;;;;5006545;28;20081;-72
2023/09/24 06:39:36;;;;;;;4.97;1.85;;;10.60;99.90;;;;;;5006514;28;20038;-72
2023/09/24 06:42:02;;;;;;;7.25;2.20;;;10.70;99.90;;;;;;5008444;28;20125;-72
2023/09/24 06:44:28;;;;;;;10.27;2.45;;;10.70;99.90;;;;;;5011488;28;20494;-73
2023/09/24 06:46:55;;;;;;;6.53;2.10;;;10.70;99.90;;;;;;5007460;28;20058;-73
2023/09/24 06:49:20;;;;;;;4.80;1.70;;;10.70;99.90;;;;;;5008137;28;20046;-73
2023/09/24 06:51:46;;;;;;;4.43;1.88;;;10.80;99.90;;;;;;5014240;28;20171;-72
2023/09/24 06:54:11;;;;;;;7.93;2.30;;;10.80;99.90;;;;;;5014312;28;20045;-72
2023/09/24 06:56:37;;;;;;;8.02;1.92;;;10.80;99.90;;;;;;5007356;28;20084;-73
2023/09/24 06:59:09;;;;;;;3.78;2.03;;;10.90;99.90;;;;;;5015933;28;20371;-73
2023/09/24 07:01:38;;;;;;;6.65;2.30;;;10.90;99.90;;;;;;5007532;28;20042;-72
2023/09/24 07:04:07;;;;;;;6.78;2.63;;;11.00;99.90;;;;;;5004663;28;20121;-72
2023/09/24 07:06:33;;;;;;;5.68;2.28;;;11.10;99.90;;;;;;5010375;28;20046;-74
2023/09/24 07:09:00;;;;;;;6.32;2.65;;;11.20;99.90;;;;;;5005381;28;20026;-73
2023/09/24 07:11:34;;;;;;;5.50;2.42;;;11.30;99.90;;;;;;5004029;28;20034;-72
2023/09/24 07:14:06;;;;;;;5.10;2.40;;;11.40;99.90;;;;;;5007837;28;20022;-71
2023/09/24 07:16:32;;;;;;;6.05;2.30;;;11.50;99.90;;;;;;5005096;28;20235;-75
2023/09/24 07:18:58;;;;;;;6.57;1.83;;;11.50;99.90;;;;;;5015466;28;20122;-72
2023/09/24 07:21:28;;;;;;;8.65;2.42;;;11.60;99.90;;;;;;5006717;28;20045;-72
2023/09/24 07:23:54;;;;;;;7.83;2.10;;;11.70;99.90;;;;;;5003707;28;20034;-72
2023/09/24 07:26:20;;;;;;;5.25;2.25;;;11.80;99.90;;;;;;5011402;28;20045;-71
2023/09/24 07:28:46;;;;;;;8.20;1.88;;;11.90;99.90;;;;;;5000599;28;20061;-72
2023/09/24 07:31:19;;;;;;;10.93;1.98;;;11.90;99.90;;;;;;5008897;28;20668;-73
2023/09/24 07:33:45;;;;;;;3.85;1.67;;;12.10;99.90;;;;;;5001997;28;20034;-72
2023/09/24 07:36:11;;;;;;;8.00;1.90;;;12.20;99.90;;;;;;5008048;28;20066;-71
2023/09/24 07:38:37;;;;;;;5.15;1.55;;;12.30;99.90;;;;;;5014934;28;20486;-72
2023/09/24 07:41:03;;;;;;;3.88;1.35;;;12.40;99.90;;;;;;5012937;28;20029;-71
2023/09/24 07:43:28;;;;;;;6.47;1.48;;;12.50;99.90;;;;;;5011451;28;20029;-71
2023/09/24 07:45:54;;;;;;;4.18;1.55;;;12.60;99.90;;;;;;5022240;28;20059;-71
2023/09/24 07:48:19;;;;;;;2.58;1.20;;;12.60;99.90;;;;;;5010686;28;20794;-72
2023/09/24 07:50:54;;;;;;;6.90;1.20;;;12.70;99.90;;;;;;5007694;28;20022;-70
2023/09/24 07:53:23;;;;;;;3.25;1.00;;;12.80;99.90;;;;;;5007568;28;20088;-71
2023/09/24 07:55:55;;;;;;;4.03;1.15;;;12.90;99.90;;;;;;5019932;28;20053;-71
2023/09/24 07:58:25;;;;;;;4.30;1.30;;;13.00;99.90;;;;;;5036933;28;20025;-72
2023/09/24 08:00:54;;;;;;;3.83;1.23;;;13.10;99.90;;;;;;5015977;28;20033;-72
2023/09/24 08:03:20;;;;;;;3.08;0.90;;;13.20;99.90;;;;;;5037662;28;20413;-72
2023/09/24 08:05:46;;;;;;;5.45;1.33;;;13.30;99.90;;;;;;5034423;28;20037;-72
2023/09/24 08:08:12;;;;;;;4.10;1.33;;;13.40;99.90;;;;;;5026794;28;20045;-72
2023/09/24 08:10:38;;;;;;;1.25;0.50;;;13.50;99.90;;;;;;5006040;28;20043;-73
2023/09/24 08:13:04;;;;;;;3.05;1.10;;;13.60;99.90;;;;;;5014736;28;20029;-71
2023/09/24 08:15:30;;;;;;;4.55;1.52;;;13.70;99.90;;;;;;5029976;28;20404;-71
2023/09/24 08:17:56;;;;;;;3.15;1.63;;;13.80;99.90;;;;;;5026881;28;20401;-72
2023/09/24 08:20:22;;;;;;;2.08;0.82;;;13.90;99.90;;;;;;5009663;28;20060;-71
2023/09/24 08:22:48;;;;;;;5.35;0.98;;;14.00;99.90;;;;;;5022923;28;20463;-71
2023/09/24 08:25:14;;;;;;;3.53;1.00;;;14.00;99.90;;;;;;5012385;28;20029;-72
2023/09/24 08:27:40;;;;;;;4.50;1.70;;;14.10;99.90;;;;;;5015024;28;20091;-71
2023/09/24 08:30:06;;;;;;;4.20;0.90;;;14.20;99.90;;;;;;5006848;28;20121;-72
2023/09/24 08:32:31;;;;;;;2.83;1.05;;;14.30;99.90;;;;;;5035638;28;20037;-71
2023/09/24 08:34:57;;;;;;;4.75;1.40;;;14.40;99.90;;;;;;5036055;28;20036;-72
2023/09/24 08:37:23;;;;;;;3.92;1.10;;;14.50;99.90;;;;;;5012566;28;20099;-72
2023/09/24 08:39:48;;;;;;;2.83;0.88;;;14.60;99.90;;;;;;5019216;28;20131;-72
2023/09/24 08:42:17;;;;;;;3.60;1.30;;;14.60;99.90;;;;;;5012863;28;20393;-72
2023/09/24 08:44:43;;;;;;;3.58;0.95;;;14.70;99.90;;;;;;5007781;28;20045;-73
2023/09/24 08:47:09;;;;;;;3.15;0.55;;;14.80;99.90;;;;;;5010565;28;20025;-72
2023/09/24 08:49:35;;;;;;;4.63;1.10;;;14.90;99.90;;;;;;5014594;28;20041;-72
2023/09/24 08:52:03;;;;;;;4.18;0.75;;;15.00;99.90;;;;;;5037706;28;20397;-72
2023/09/24 08:54:30;;;;;;;2.65;0.65;;;15.10;99.90;;;;;;5033704;28;20034;-71
2023/09/24 08:56:55;;;;;;;3.20;0.60;;;15.20;99.90;;;;;;5031046;28;20736;-72
2023/09/24 08:59:21;;;;;;;2.63;0.40;;;15.30;99.90;;;;;;5038915;28;20083;-72
2023/09/24 09:01:54;;;;;;;4.45;0.50;;;15.40;99.90;;;;;;5026202;28;20091;-72
2023/09/24 09:04:20;;;;;;;5.25;0.63;;;15.50;99.90;;;;;;5009314;28;20060;-71
2023/09/24 09:06:45;;;;;;;4.85;0.50;;;15.50;99.90;;;;;;5027287;28;20420;-71
2023/09/24 09:09:23;;;;;;;2.63;0.47;;;15.70;99.90;;;;;;5018123;28;20370;-73
2023/09/24 09:11:48;;;;;;;6.82;0.75;;;15.80;99.90;;;;;;5032618;28;20033;-73
2023/09/24 09:14:14;;;;;;;3.78;0.40;;;15.90;99.90;;;;;;5019156;28;20520;-71
2023/09/24 09:16:57;;;;;;;6.13;0.88;;;15.90;99.90;;;;;;5025538;28;20025;-70
2023/09/24 09:19:27;;;;;;;5.60;0.90;;;16.10;99.90;;;;;;5023013;28;20101;-71
2023/09/24 09:21:52;;;;;;;1.77;0.40;;;16.10;99.90;;;;;;5016726;28;20039;-72
2023/09/24 09:24:25;;;;;;;3.38;0.63;;;16.30;99.90;;;;;;5023119;28;20043;-72
2023/09/24 09:26:57;;;;;;;2.97;0.82;;;16.30;99.90;;;;;;5013313;28;20033;-72
2023/09/24 09:29:25;;;;;;;2.63;0.32;;;16.30;99.90;;;;;;5008397;28;20048;-71
2023/09/24 09:31:50;;;;;;;6.50;0.47;;;16.40;99.90;;;;;;5028488;28;20501;-72
2023/09/24 09:34:17;;;;;;;3.78;0.60;;;16.50;99.90;;;;;;5020336;28;20033;-72
2023/09/24 09:36:43;;;;;;;2.60;0.50;;;16.50;99.90;;;;;;5015885;28;20040;-71
2023/09/24 09:39:09;;;;;;;1.80;0.45;;;16.50;99.90;;;;;;5026553;28;20045;-70
2023/09/24 09:41:35;;;;;;;2.05;0.68;;;16.60;99.90;;;;;;5030303;28;20047;-72
2023/09/24 09:44:05;;;;;;;2.63;1.02;;;16.70;99.90;;;;;;5039041;28;20029;-71
2023/09/24 09:46:33;;;;;;;;;;;16.70;99.90;;;;;;5011554;28;20044;-72
2023/09/24 09:49:07;;;;;;;6.50;2.30;;;16.80;99.90;;;;;;5022456;28;19920;-72
2023/09/24 09:51:55;;;;;;;15.45;7.15;;;16.90;99.90;;;;;;5027435;28;20041;-71
2023/09/24 09:54:22;;;;;;;5.50;1.13;;;17.00;99.90;;;;;;5005116;28;20037;-70
2023/09/24 09:56:50;;;;;;;1.58;0.60;;;17.00;99.90;;;;;;5024833;28;20044;-72
2023/09/24 09:59:16;;;;;;;1.77;0.60;;;17.10;99.90;;;;;;5009260;28;20061;-72
2023/09/24 10:01:42;;;;;;;1.95;0.47;;;17.10;99.90;;;;;;5009013;28;20064;-73
2023/09/24 10:04:09;;;;;;;1.90;0.25;;;17.20;99.90;;;;;;5007112;28;20342;-72
2023/09/24 10:06:37;;;;;;;3.90;0.63;;;17.20;99.90;;;;;;5032135;28;20033;-73
2023/09/24 10:09:29;;;;;;;2.22;0.32;;;17.20;99.90;;;;;;5029272;28;20040;-72
2023/09/24 10:11:56;;;;;;;2.72;0.57;;;17.40;99.90;;;;;;5016925;28;20379;-72
2023/09/24 10:14:35;;;;;;;1.48;0.50;;;17.40;99.90;;;;;;5011299;28;20432;-71
2023/09/24 10:17:16;;;;;;;2.30;0.93;;;17.40;99.90;;;;;;5015148;28;20656;-72
2023/09/24 10:19:53;;;;;;;3.00;0.70;;;17.40;99.90;;;;;;5027874;28;20042;-72
2023/09/24 10:22:27;;;;;;;3.25;0.70;;;17.50;99.90;;;;;;5032689;28;20045;-72
2023/09/24 10:24:53;;;;;;;2.38;0.50;;;17.50;99.90;;;;;;5009940;28;22257;-73
2023/09/24 10:27:26;;;;;;;3.10;0.43;;;17.50;99.90;;;;;;5029684;28;20029;-73
2023/09/24 10:30:01;;;;;;;1.42;0.30;;;17.50;99.90;;;;;;5012065;28;20064;-73
2023/09/24 10:32:29;;;;;;;3.35;0.40;;;17.60;99.90;;;;;;5032473;28;20035;-72
2023/09/24 10:34:58;;;;;;;1.88;0.60;;;17.60;99.90;;;;;;5033337;28;20151;-72
2023/09/24 10:37:29;;;;;;;3.35;0.45;;;17.60;99.90;;;;;;5012461;28;20107;-72
2023/09/24 10:39:57;;;;;;;2.50;0.50;;;17.70;99.90;;;;;;5033902;28;20033;-72
2023/09/24 10:42:27;;;;;;;0.82;0.28;;;17.70;99.90;;;;;;5020776;28;20037;-71
2023/09/24 10:45:12;;;;;;;6.13;0.50;;;17.80;99.90;;;;;;5027821;28;20045;-72
2023/09/24 10:47:38;;;;;;;2.10;0.50;;;17.80;99.90;;;;;;5021358;28;20133;-72
2023/09/24 10:50:15;;;;;;;3.42;0.47;;;17.80;99.90;;;;;;5032097;28;20041;-72
2023/09/24 10:52:59;;;;;;;1.17;0.38;;;17.80;99.90;;;;;;5027851;28;20064;-73
2023/09/24 10:55:28;;;;;;;1.60;0.28;;;17.90;99.90;;;;;;5032219;28;20045;-72
2023/09/24 10:57:54;;;;;;;2.55;0.50;;;18.10;99.90;;;;;;5030478;28;20065;-72
2023/09/24 11:00:22;;;;;;;1.77;0.30;;;18.20;99.90;;;;;;5007945;28;20042;-72
2023/09/24 11:02:58;;;;;;;1.42;0.43;;;18.20;99.90;;;;;;5021422;28;20399;-72
2023/09/24 11:05:24;;;;;;;0.57;0.30;;;18.30;99.90;;;;;;5020424;28;20037;-71
2023/09/24 11:07:50;;;;;;;3.83;0.30;;;18.30;99.90;;;;;;5007450;28;20034;-70
2023/09/24 11:10:25;;;;;;;1.95;0.40;;;18.40;99.90;;;;;;5029659;28;20021;-72
2023/09/24 11:12:53;;;;;;;2.47;0.57;;;18.30;99.90;;;;;;5024251;28;20482;-71
2023/09/24 11:15:19;;;;;;;1.83;0.50;;;18.30;99.90;;;;;;5024156;28;20039;-71
2023/09/24 11:17:47;;;;;;;2.20;0.75;;;18.40;99.90;;;;;;5025674;28;20103;-71
2023/09/24 11:20:13;;;;;;;1.42;0.40;;;18.30;99.90;;;;;;5008368;28;20075;-72
2023/09/24 11:22:39;;;;;;;0.98;0.40;;;18.30;99.90;;;;;;5010339;28;20034;-71
2023/09/24 11:25:09;;;;;;;4.32;0.88;;;18.20;99.90;;;;;;5028450;28;20044;-72
2023/09/24 11:27:51;;;;;;;1.43;0.50;;;18.20;99.90;;;;;;5026014;28;20041;-72
2023/09/24 11:30:19;;;;;;;3.25;0.60;;;18.30;99.90;;;;;;5004531;28;20034;-72
2023/09/24 11:32:46;;;;;;;1.98;0.20;;;18.30;99.90;;;;;;5003965;28;20044;-71
2023/09/24 11:35:14;;;;;;;3.42;0.32;;;18.30;99.90;;;;;;5015495;28;20040;-72
2023/09/24 11:37:51;;;;;;;2.88;0.30;;;18.20;99.90;;;;;;5033478;28;20068;-72
2023/09/24 11:40:28;;;;;;;2.80;0.40;;;18.20;99.90;;;;;;5032933;28;20044;-72
2023/09/24 11:42:59;;;;;;;9.13;0.70;;;18.20;99.90;;;;;;5020324;28;20785;-72
2023/09/24 11:45:43;;;;;;;1.50;0.30;;;18.30;99.90;;;;;;5023943;28;20032;-72
2023/09/24 11:48:12;;;;;;;1.63;0.70;;;18.20;99.90;;;;;;5029174;28;20643;-72
2023/09/24 11:50:43;;;;;;;3.60;0.47;;;18.20;99.90;;;;;;5026406;28;20030;-71
2023/09/24 11:53:09;;;;;;;2.42;0.55;;;18.20;99.90;;;;;;5028447;28;20149;-71
2023/09/24 11:55:35;;;;;;;2.00;0.35;;;18.10;99.90;;;;;;5019129;28;20061;-70
2023/09/24 11:58:02;;;;;;;0.77;0.25;;;18.20;99.90;;;;;;5025303;28;20041;-72
2023/09/24 12:00:27;;;;;;;0.63;0.22;;;18.20;99.90;;;;;;5006661;28;20486;-72
2023/09/24 12:02:53;;;;;;;2.65;0.40;;;18.10;99.90;;;;;;5027270;28;20052;-73
2023/09/24 12:05:18;;;;;;;1.77;0.38;;;18.20;99.90;;;;;;5014260;28;20025;-73
2023/09/24 12:07:44;;;;;;;1.58;0.20;;;18.30;99.90;;;;;;5018468;28;20054;-72
2023/09/24 12:10:10;;;;;;;3.30;0.40;;;18.20;99.90;;;;;;5035574;28;20446;-71
2023/09/24 12:12:35;;;;;;;2.67;0.50;;;18.20;99.90;;;;;;5027975;28;20041;-71
2023/09/24 12:15:01;;;;;;;1.67;0.40;;;18.20;99.90;;;;;;5006188;28;20034;-73
2023/09/24 12:17:27;;;;;;;3.95;0.73;;;18.20;99.90;;;;;;5024672;28;20028;-72
2023/09/24 12:19:53;;;;;;;2.40;0.47;;;18.10;99.90;;;;;;5008433;28;20125;-72
2023/09/24 12:22:19;;;;;;;0.63;0.30;;;18.10;99.90;;;;;;5005392;28;20497;-72
2023/09/24 12:24:44;;;;;;;1.15;0.45;;;18.20;99.90;;;;;;5010637;28;20048;-71
2023/09/24 12:27:10;;;;;;;5.63;0.45;;;18.20;99.90;;;;;;5026641;28;20562;-71
2023/09/24 12:29:36;;;;;;;3.28;0.40;;;18.20;99.90;;;;;;5022550;28;20041;-73
2023/09/24 12:32:02;;;;;;;4.45;0.40;;;18.20;99.90;;;;;;5024805;28;20048;-72
2023/09/24 12:34:27;;;;;;;0.73;0.20;;;18.20;99.90;;;;;;5024290;28;20104;-72
2023/09/24 12:36:53;;;;;;;1.05;0.38;;;18.30;99.90;;;;;;5004553;28;20038;-71
2023/09/24 12:39:19;;;;;;;1.20;0.45;;;18.30;99.90;;;;;;5021914;28;20044;-73
2023/09/24 12:41:48;;;;;;;2.75;0.40;;;18.30;99.90;;;;;;5024854;28;20033;-71
2023/09/24 12:44:14;;;;;;;4.38;0.38;;;18.30;99.90;;;;;;5034813;28;20041;-73
2023/09/24 12:46:40;;;;;;;0.85;0.30;;;18.30;99.90;;;;;;5012031;28;20053;-72